Time;durP1;ratioP1;P1;durP2;ratioP2;P2;SDS_P1;SDS_P2;PMS_P1;PMS_P2;Temp;Humidity;BMP_temperature;BMP_pressure;BME280_temperature;BME280_humidity;BME280_pressure;Samples;Min_cycle;Max_cycle;Signal;HPM_P1;HPM_P2
2021/11/06 00:01:26;;;;;;;11.07;9.93;;;;;;;21.37;55.77;98612.28;5006694;28;20249;-62
2021/11/06 00:03:53;;;;;;;12.30;10.77;;;;;;;21.36;55.48;98614.00;5008113;28;20257;-62
2021/11/06 00:06:19;;;;;;;10.63;9.53;;;;;;;21.37;55.69;98617.41;5009407;28;20206;-62
2021/11/06 00:08:46;;;;;;;11.70;10.50;;;;;;;21.37;55.83;98620.84;5009615;28;20249;-63
2021/11/06 00:11:12;;;;;;;11.13;9.97;;;;;;;21.37;55.84;98627.63;5009343;28;20206;-62
2021/11/06 00:13:39;;;;;;;11.93;10.70;;;;;;;21.37;55.57;98622.53;5009760;28;20313;-62
2021/11/06 00:16:06;;;;;;;12.30;10.90;;;;;;;21.37;55.66;98623.41;5008918;28;20718;-61
2021/11/06 00:18:32;;;;;;;10.50;9.40;;;;;;;21.39;55.64;98633.72;5009766;28;20257;-62
2021/11/06 00:20:59;;;;;;;12.40;10.90;;;;;;;21.38;55.79;98631.97;5009335;28;20321;-62
2021/11/06 00:23:25;;;;;;;11.77;10.50;;;;;;;21.39;55.44;98637.16;5008967;28;20473;-62
2021/11/06 00:25:54;;;;;;;11.90;10.10;;;;;;;21.37;55.75;98638.75;5008589;28;20217;-62
2021/11/06 00:28:21;;;;;;;12.33;10.40;;;;;;;21.38;55.99;98639.63;5009182;28;20238;-63
2021/11/06 00:30:47;;;;;;;10.73;9.63;;;;;;;21.39;55.91;98637.16;5008917;28;20257;-62
2021/11/06 00:33:14;;;;;;;11.13;9.90;;;;;;;21.39;55.73;98638.81;5008845;28;20305;-62
2021/11/06 00:35:40;;;;;;;10.70;9.60;;;;;;;21.39;55.76;98633.72;5008984;28;20210;-62
2021/11/06 00:38:07;;;;;;;10.93;9.80;;;;;;;21.38;55.70;98639.63;5004924;28;20990;-62
2021/11/06 00:40:34;;;;;;;11.03;9.93;;;;;;;20.67;55.78;98512.59;5008702;28;20298;-62
2021/11/06 00:43:00;;;;;;;10.97;9.60;;;;;;;21.37;55.77;98633.63;5008662;28;20672;-62
2021/11/06 00:45:27;;;;;;;11.07;9.97;;;;;;;21.39;55.61;98637.16;5005496;28;20675;-62
2021/11/06 00:47:53;;;;;;;10.97;9.87;;;;;;;21.37;55.89;98628.53;5005056;28;20206;-62
2021/11/06 00:50:20;;;;;;;11.80;9.70;;;;;;;21.37;55.44;98622.53;5008429;28;20313;-62
2021/11/06 00:52:47;;;;;;;10.70;9.60;;;;;;;21.36;55.80;98626.78;5007797;28;20611;-62
2021/11/06 00:55:14;;;;;;;11.27;9.70;;;;;;;21.37;55.96;98628.53;5006832;28;20297;-61
2021/11/06 00:57:41;;;;;;;10.73;9.63;;;;;;;21.37;55.84;98631.06;5005634;28;20290;-62
2021/11/06 01:00:10;;;;;;;9.97;8.97;;;;;;;21.38;55.92;98629.41;4990778;28;20249;-62
2021/11/06 01:02:37;;;;;;;11.17;9.83;;;;;;;21.37;55.73;98625.06;5008054;28;20214;-62
2021/11/06 01:05:04;;;;;;;10.20;9.13;;;;;;;21.38;55.80;98634.53;5002420;28;20217;-62
2021/11/06 01:07:32;;;;;;;9.90;8.90;;;;;;;21.38;55.65;98621.72;5007805;28;20210;-62
2021/11/06 01:09:58;;;;;;;10.10;9.00;;;;;;;21.38;55.96;98629.41;5005786;28;20305;-62
2021/11/06 01:12:25;;;;;;;10.40;9.30;;;;;;;21.38;55.45;98624.28;5006021;28;20206;-62
2021/11/06 01:14:53;;;;;;;11.20;9.73;;;;;;;21.39;55.58;98631.16;5000289;28;20269;-62
2021/11/06 01:17:19;;;;;;;9.37;8.47;;;;;;;21.39;55.63;98628.59;5003002;28;20226;-62
2021/11/06 01:19:46;;;;;;;9.60;8.63;;;;;;;21.28;55.78;98620.41;5005483;28;20245;-62
2021/11/06 01:22:13;;;;;;;10.40;9.20;;;;;;;21.38;55.95;98626.84;5007886;28;20285;-60
2021/11/06 01:24:39;;;;;;;9.63;8.63;;;;;;;21.14;55.95;98582.22;5023085;22;20253;-67
2021/11/06 01:27:09;;;;;;;10.53;9.43;;;;;;;21.38;55.77;98626.84;4989798;28;20233;-67
2021/11/06 01:29:37;;;;;;;10.00;8.60;;;;;;;21.39;55.86;98633.72;4990150;28;20249;-66
2021/11/06 01:32:06;;;;;;;9.77;8.70;;;;;;;21.40;55.89;98640.56;4990785;28;20289;-67
2021/11/06 01:34:33;;;;;;;10.90;9.37;;;;;;;20.90;55.81;98551.22;4985813;28;20748;-68
2021/11/06 01:37:00;;;;;;;9.77;8.77;;;;;;;21.41;55.60;98632.09;5008038;28;20198;-67
2021/11/06 01:39:27;;;;;;;9.10;8.20;;;;;;;21.39;55.92;98626.91;4990445;28;20234;-68
2021/11/06 01:41:54;;;;;;;9.67;8.67;;;;;;;21.14;55.55;98584.78;5006094;28;20198;-67
2021/11/06 01:44:20;;;;;;;10.10;8.90;;;;;;;21.23;55.68;98601.41;4987988;28;20945;-67
2021/11/06 01:46:47;;;;;;;9.70;8.70;;;;;;;21.41;55.71;98629.56;4999337;28;20220;-67
2021/11/06 01:49:15;;;;;;;10.17;9.07;;;;;;;21.41;55.91;98630.41;4998150;28;20206;-72
2021/11/06 01:51:42;;;;;;;9.90;8.90;;;;;;;21.27;55.56;98605.88;5007809;28;20202;-68
2021/11/06 01:54:08;;;;;;;9.07;8.17;;;;;;;21.31;55.72;98607.78;5007401;28;20720;-70
2021/11/06 01:56:35;;;;;;;9.90;8.90;;;;;;;21.26;55.96;98600.69;4994317;28;20206;-66
2021/11/06 01:59:02;;;;;;;9.53;8.53;;;;;;;21.38;55.80;98622.59;4983603;28;20226;-68
2021/11/06 02:01:28;;;;;;;9.40;8.50;;;;;;;21.37;55.73;98619.97;4989905;28;20288;-71
2021/11/06 02:03:55;;;;;;;9.60;8.27;;;;;;;21.07;55.57;98567.38;5005545;28;20264;-71
2021/11/06 02:06:22;;;;;;;9.77;8.77;;;;;;;21.36;56.00;98620.78;4986813;28;20202;-66
2021/11/06 02:08:48;;;;;;;9.10;8.20;;;;;;;21.37;55.89;98628.53;5002619;28;20296;-66
2021/11/06 02:11:15;;;;;;;9.90;8.90;;;;;;;21.39;55.75;98623.47;5005658;28;20230;-69
2021/11/06 02:13:41;;;;;;;9.83;8.57;;;;;;;21.30;55.90;98611.16;4985470;28;20321;-69
2021/11/06 02:16:08;;;;;;;9.23;8.33;;;;;;;20.62;55.70;98493.59;4984072;28;20302;-67
2021/11/06 02:18:35;;;;;;;8.80;7.93;;;;;;;21.25;55.97;98593.81;5007694;28;20301;-66
2021/11/06 02:21:06;;;;;;;8.87;7.97;;;;;;;20.82;55.80;98515.88;5007072;28;20222;-67
2021/11/06 02:23:42;;;;;;;8.33;7.50;;;;;;;21.08;55.83;98569.16;5005282;28;20261;-68
2021/11/06 02:26:10;;;;;;;8.17;7.37;;;;;;;20.53;55.74;98481.28;4990470;28;20671;-67
2021/11/06 02:28:58;;;;;;;8.20;7.40;;;;;;;21.40;55.88;98622.66;5007442;28;20206;-68
2021/11/06 02:31:25;;;;;;;9.70;8.70;;;;;;;21.39;55.55;98620.91;4989856;28;20322;-68
2021/11/06 02:33:52;;;;;;;8.93;8.03;;;;;;;21.39;55.71;98624.38;5006102;28;20984;-67
2021/11/06 02:36:18;;;;;;;9.27;8.37;;;;;;;21.27;55.97;98602.44;4989982;28;20281;-67
2021/11/06 02:38:45;;;;;;;8.63;7.73;;;;;;;21.38;55.95;98619.19;4993261;28;20287;-69
2021/11/06 02:41:12;;;;;;;8.10;7.27;;;;;;;21.39;55.96;98626.91;5006208;28;20202;-67
2021/11/06 02:43:38;;;;;;;9.00;8.10;;;;;;;21.37;55.96;98623.41;5006266;28;20771;-65
2021/11/06 02:46:05;;;;;;;8.97;7.93;;;;;;;21.36;55.97;98619.09;4999750;28;20755;-69
2021/11/06 02:48:31;;;;;;;9.17;7.87;;;;;;;21.38;55.90;98625.16;5003966;28;20202;-70
2021/11/06 02:50:58;;;;;;;8.40;7.60;;;;;;;21.39;56.01;98632.03;5006982;28;20798;-67
2021/11/06 02:53:25;;;;;;;8.90;8.00;;;;;;;21.41;55.87;98621.88;5004813;28;20343;-66
2021/11/06 02:55:54;;;;;;;8.10;7.30;;;;;;;21.40;55.94;98621.00;5007284;28;20220;-69
2021/11/06 02:58:20;;;;;;;8.60;7.77;;;;;;;21.40;55.80;98622.66;5000568;28;20600;-67
2021/11/06 03:00:47;;;;;;;8.83;7.93;;;;;;;21.35;55.93;98614.78;5005171;28;20284;-69
2021/11/06 03:03:14;;;;;;;7.50;6.80;;;;;;;21.28;56.32;98602.50;5007694;28;20210;-66
2021/11/06 03:05:40;;;;;;;8.30;7.50;;;;;;;21.23;56.26;98595.44;5006515;28;20293;-70
2021/11/06 03:08:07;;;;;;;8.03;7.23;;;;;;;21.38;56.41;98624.28;4966184;28;20241;-68
2021/11/06 03:10:34;;;;;;;8.53;7.67;;;;;;;21.36;55.83;98616.53;5004646;28;20317;-66
2021/11/06 03:13:01;;;;;;;8.50;7.60;;;;;;;21.39;56.03;98621.81;4997471;28;20237;-69
2021/11/06 03:15:27;;;;;;;7.93;7.13;;;;;;;21.22;55.87;98592.00;5006741;28;20234;-66
2021/11/06 03:17:54;;;;;;;8.33;7.53;;;;;;;21.38;55.88;98621.72;5004353;28;20230;-67
2021/11/06 03:20:21;;;;;;;7.77;7.07;;;;;;;21.40;55.75;98625.22;5005649;28;20639;-66
2021/11/06 03:22:49;;;;;;;7.97;7.17;;;;;;;21.37;55.67;98612.28;5000717;28;20293;-70
2021/11/06 03:25:16;;;;;;;8.03;7.23;;;;;;;21.39;55.78;98623.47;5004182;28;20257;-68
2021/11/06 03:27:42;;;;;;;8.17;7.37;;;;;;;21.20;55.86;98591.03;5003195;28;20702;-66
2021/11/06 03:30:09;;;;;;;8.77;7.87;;;;;;;21.39;55.78;98620.91;5005138;28;20803;-68
2021/11/06 03:32:37;;;;;;;8.17;7.37;;;;;;;21.41;55.85;98630.41;4988814;28;20233;-67
2021/11/06 03:35:06;;;;;;;7.90;7.10;;;;;;;21.38;56.04;98619.19;4990292;28;20313;-67
2021/11/06 03:37:32;;;;;;;7.63;6.93;;;;;;;21.39;55.88;98626.91;5006325;28;20234;-69
2021/11/06 03:39:59;;;;;;;7.43;6.77;;;;;;;21.30;56.44;98613.69;4986551;28;20230;-69
2021/11/06 03:42:25;;;;;;;7.80;7.00;;;;;;;21.39;55.98;98623.47;5008277;28;20252;-65
2021/11/06 03:44:52;;;;;;;8.07;7.27;;;;;;;21.40;56.22;98625.22;5004040;28;20302;-68
2021/11/06 03:47:19;;;;;;;8.17;7.37;;;;;;;21.26;56.10;98601.56;5003607;28;20238;-69
2021/11/06 03:49:45;;;;;;;7.97;7.13;;;;;;;21.39;55.79;98626.03;4991004;28;20370;-69
2021/11/06 03:52:13;;;;;;;8.47;7.67;;;;;;;21.37;55.90;98623.41;5010306;28;20229;-68
2021/11/06 03:54:41;;;;;;;7.27;6.57;;;;;;;21.37;56.12;98625.06;5007810;28;20253;-65
2021/11/06 03:57:08;;;;;;;7.40;6.70;;;;;;;21.39;55.86;98633.72;4990734;28;20198;-68
2021/11/06 03:59:35;;;;;;;7.60;6.83;;;;;;;21.38;55.91;98634.53;5009818;28;20861;-64
2021/11/06 04:02:03;;;;;;;7.30;6.60;;;;;;;21.37;56.06;98631.06;5007807;28;20214;-66
2021/11/06 04:04:29;;;;;;;7.13;6.43;;;;;;;21.10;55.93;98582.84;4974220;28;20287;-67
2021/11/06 04:06:56;;;;;;;7.33;6.63;;;;;;;21.38;56.08;98626.84;4975843;28;20301;-68
2021/11/06 04:09:22;;;;;;;7.53;6.73;;;;;;;21.40;55.66;98631.22;5009888;28;20249;-69
2021/11/06 04:11:50;;;;;;;7.80;7.00;;;;;;;21.39;55.78;98634.59;5009432;28;20321;-67
2021/11/06 04:14:17;;;;;;;7.23;6.53;;;;;;;21.31;56.27;98619.66;4975614;28;20253;-68
2021/11/06 04:16:43;;;;;;;8.03;7.30;;;;;;;21.31;56.09;98622.22;4997558;28;20654;-69
2021/11/06 04:19:10;;;;;;;7.33;6.63;;;;;;;21.38;55.35;98640.50;4972493;28;20230;-67
2021/11/06 04:21:38;;;;;;;6.80;6.17;;;;;;;21.39;55.70;98654.16;5005135;28;20640;-69
2021/11/06 04:24:05;;;;;;;7.37;6.50;;;;;;;21.36;55.86;98654.91;5008650;28;20260;-66
2021/11/06 04:26:32;;;;;;;6.80;6.10;;;;;;;21.40;55.89;98668.69;5009129;28;20308;-69
2021/11/06 04:28:58;;;;;;;7.83;6.97;;;;;;;21.38;55.87;98660.94;4991530;28;20237;-66
2021/11/06 04:31:25;;;;;;;7.90;7.10;;;;;;;21.40;55.97;98661.91;5009123;28;20222;-67
2021/11/06 04:33:51;;;;;;;7.13;6.43;;;;;;;21.40;55.86;98666.13;5008075;28;20257;-69
2021/11/06 04:36:19;;;;;;;7.27;6.57;;;;;;;21.38;55.69;98662.66;5009932;28;20667;-66
2021/11/06 04:38:45;;;;;;;7.87;6.60;;;;;;;21.40;55.86;98661.91;5008091;28;20617;-66
2021/11/06 04:41:12;;;;;;;7.03;6.33;;;;;;;21.22;56.45;98632.00;4986295;28;20202;-68
2021/11/06 04:43:39;;;;;;;7.50;6.70;;;;;;;21.18;55.95;98627.56;4987290;28;20326;-68
2021/11/06 04:46:06;;;;;;;7.07;6.37;;;;;;;21.32;55.77;98658.09;4980369;28;20237;-66
2021/11/06 04:48:32;;;;;;;6.70;6.10;;;;;;;21.31;56.20;98651.25;4974578;28;20314;-69
2021/11/06 04:50:59;;;;;;;7.43;6.73;;;;;;;21.40;55.75;98663.56;4990134;28;20675;-69
2021/11/06 04:53:25;;;;;;;7.03;6.33;;;;;;;21.35;56.02;98658.25;4991551;28;20309;-69
2021/11/06 04:55:55;;;;;;;6.87;6.17;;;;;;;21.34;55.92;98664.19;5008107;28;20259;-70
2021/11/06 04:58:22;;;;;;;7.50;6.70;;;;;;;21.39;55.96;98675.50;5009074;28;20236;-66
2021/11/06 05:00:48;;;;;;;7.60;6.70;;;;;;;21.40;55.85;98669.59;5005081;28;20241;-66
2021/11/06 05:03:15;;;;;;;7.27;6.30;;;;;;;21.39;55.91;98667.84;5007517;28;20209;-67
2021/11/06 05:05:42;;;;;;;6.93;6.23;;;;;;;21.37;55.90;98663.44;5008519;28;20532;-68
2021/11/06 05:08:08;;;;;;;6.63;6.03;;;;;;;21.40;56.22;98673.81;5000519;28;20609;-67
2021/11/06 05:10:35;;;;;;;6.87;6.17;;;;;;;21.41;56.26;98676.44;5005855;28;20315;-66
2021/11/06 05:13:01;;;;;;;7.07;6.33;;;;;;;21.36;56.13;98670.25;5005701;28;20234;-68
2021/11/06 05:15:28;;;;;;;6.73;6.03;;;;;;;21.39;56.08;98675.50;5007391;28;20202;-65
2021/11/06 05:17:55;;;;;;;6.70;6.10;;;;;;;21.38;55.38;98667.78;5007741;28;20640;-70
2021/11/06 05:20:21;;;;;;;6.93;6.23;;;;;;;21.29;55.99;98655.41;4988943;28;20248;-66
2021/11/06 05:22:48;;;;;;;7.20;6.50;;;;;;;21.38;55.97;98668.63;4974541;28;20238;-67
2021/11/06 05:25:14;;;;;;;6.87;6.17;;;;;;;21.36;56.00;98666.81;5007878;28;20288;-69
2021/11/06 05:27:41;;;;;;;7.30;6.60;;;;;;;21.39;56.29;98675.50;4994147;28;20234;-69
2021/11/06 05:30:09;;;;;;;6.83;6.20;;;;;;;21.06;55.73;98616.75;4970671;28;20285;-69
2021/11/06 05:32:36;;;;;;;6.93;6.23;;;;;;;21.39;55.97;98666.94;4987951;28;20317;-69
2021/11/06 05:35:04;;;;;;;6.87;6.27;;;;;;;21.37;55.70;98669.44;5005620;28;20721;-66
2021/11/06 05:37:30;;;;;;;6.73;6.03;;;;;;;21.35;55.93;98662.50;5007877;28;20268;-67
2021/11/06 05:39:57;;;;;;;6.60;6.00;;;;;;;21.38;55.93;98668.63;5005505;28;20206;-70
2021/11/06 05:42:23;;;;;;;6.50;5.90;;;;;;;21.37;55.83;98672.00;5006453;28;20277;-69
2021/11/06 05:44:50;;;;;;;8.33;5.83;;;;;;;21.38;55.48;98671.19;5003950;28;20312;-67
2021/11/06 05:47:16;;;;;;;6.57;5.73;;;;;;;21.28;55.88;98657.88;4987024;28;20800;-68
2021/11/06 05:49:43;;;;;;;6.83;6.23;;;;;;;21.38;56.62;98678.00;4975574;28;20244;-68
2021/11/06 05:52:30;;;;;;;6.40;5.80;;;;;;;21.39;55.89;98685.75;4994883;28;20218;-66
2021/11/06 05:54:56;;;;;;;7.30;6.43;;;;;;;21.30;56.02;98669.97;4992062;28;20587;-70
2021/11/06 05:57:23;;;;;;;6.60;6.00;;;;;;;21.33;56.13;98682.88;5006827;28;20234;-66
2021/11/06 05:59:49;;;;;;;6.63;6.00;;;;;;;21.27;56.20;98674.91;5007967;28;20245;-67
2021/11/06 06:02:16;;;;;;;6.93;6.23;;;;;;;21.38;56.01;98690.78;5008013;28;20620;-66
2021/11/06 06:04:43;;;;;;;6.77;6.07;;;;;;;21.30;55.82;98679.28;4987903;28;20754;-67
2021/11/06 06:07:09;;;;;;;6.27;5.67;;;;;;;21.30;56.10;98669.06;5006390;28;20248;-67
2021/11/06 06:09:36;;;;;;;6.43;5.83;;;;;;;21.30;56.15;98676.75;5005469;28;20237;-66
2021/11/06 06:12:02;;;;;;;6.37;5.77;;;;;;;21.39;55.90;98687.41;5005404;28;20262;-67
2021/11/06 06:14:29;;;;;;;7.27;5.83;;;;;;;21.39;56.07;98692.53;5006079;28;20253;-66
2021/11/06 06:16:56;;;;;;;5.97;5.37;;;;;;;21.39;55.93;98689.97;4995457;28;20240;-68
2021/11/06 06:19:22;;;;;;;6.10;5.60;;;;;;;21.37;56.18;98692.44;4983948;28;20652;-68
2021/11/06 06:21:49;;;;;;;6.03;5.47;;;;;;;21.30;56.05;98679.28;5002565;28;20582;-67
2021/11/06 06:24:15;;;;;;;5.80;5.30;;;;;;;21.37;55.75;98702.69;5002919;28;20341;-66
2021/11/06 06:26:42;;;;;;;5.93;5.33;;;;;;;21.37;56.51;98696.69;4994178;28;20289;-69
2021/11/06 06:29:09;;;;;;;5.53;5.03;;;;;;;21.38;55.90;98699.31;5006915;28;20237;-68
2021/11/06 06:31:36;;;;;;;6.63;5.90;;;;;;;21.30;56.05;98685.31;5007011;28;20253;-64
2021/11/06 06:34:02;;;;;;;6.07;5.47;;;;;;;21.34;55.91;98694.88;4988323;28;20348;-67
2021/11/06 06:36:29;;;;;;;6.20;5.67;;;;;;;21.33;55.84;98699.91;5004908;28;20226;-67
2021/11/06 06:38:55;;;;;;;6.20;5.60;;;;;;;21.37;55.72;98709.47;5005845;28;20244;-69
2021/11/06 06:41:22;;;;;;;6.43;5.83;;;;;;;21.37;55.94;98712.91;5003158;28;20204;-67
2021/11/06 06:43:49;;;;;;;5.27;4.77;;;;;;;21.38;56.04;98724.88;4986076;28;20318;-68
2021/11/06 06:46:15;;;;;;;5.90;5.40;;;;;;;21.37;55.75;98730.81;4986896;28;20237;-66
2021/11/06 06:48:42;;;;;;;5.87;5.30;;;;;;;21.30;56.04;98722.78;4992010;28;21066;-69
2021/11/06 06:51:09;;;;;;;5.53;5.03;;;;;;;21.37;56.09;98730.81;4974185;28;20260;-69
2021/11/06 06:53:35;;;;;;;6.27;5.73;;;;;;;21.37;55.94;98741.03;5007776;28;20304;-67
2021/11/06 06:56:02;;;;;;;5.70;5.20;;;;;;;21.31;56.18;98729.63;5008737;28;20237;-68
2021/11/06 06:58:29;;;;;;;6.00;5.40;;;;;;;21.37;55.88;98750.38;5008068;28;20638;-69
2021/11/06 07:00:55;;;;;;;5.63;5.13;;;;;;;21.34;55.32;98748.56;5005538;28;20257;-67
2021/11/06 07:03:22;;;;;;;6.00;5.50;;;;;;;21.37;56.34;98758.94;5008067;28;20246;-69
2021/11/06 07:05:49;;;;;;;5.73;5.23;;;;;;;21.33;55.52;98746.81;5007762;28;20661;-69
2021/11/06 07:08:15;;;;;;;5.60;5.10;;;;;;;21.30;55.95;98753.44;5007071;28;20226;-69
2021/11/06 07:10:42;;;;;;;5.80;5.27;;;;;;;21.37;56.32;98763.16;4988232;28;20743;-68
2021/11/06 07:13:09;;;;;;;6.30;5.70;;;;;;;21.40;56.17;98768.44;5010875;28;20241;-68
2021/11/06 07:15:35;;;;;;;5.63;5.13;;;;;;;21.23;56.07;98736.91;5010011;28;20206;-69
2021/11/06 07:18:02;;;;;;;5.63;5.13;;;;;;;21.42;56.07;98774.53;5011231;28;20242;-67
2021/11/06 07:20:29;;;;;;;5.10;4.60;;;;;;;21.30;56.15;98749.22;5005459;28;20202;-66
2021/11/06 07:22:56;;;;;;;5.60;5.10;;;;;;;21.35;55.85;98763.09;5011141;28;20739;-69
2021/11/06 07:25:22;;;;;;;6.10;5.50;;;;;;;21.25;56.19;98745.56;5132720;22;20329;-64
2021/11/06 07:27:49;;;;;;;5.23;4.73;;;;;;;21.41;55.98;98771.06;4972667;28;20238;-63
2021/11/06 07:30:17;;;;;;;5.23;4.77;;;;;;;21.39;55.95;98766.69;5003465;28;20734;-62
2021/11/06 07:32:43;;;;;;;7.13;5.10;;;;;;;21.27;55.95;98743.06;4991105;28;20381;-62
2021/11/06 07:35:10;;;;;;;5.40;4.90;;;;;;;21.38;55.76;98765.81;4974589;28;20329;-61
2021/11/06 07:37:37;;;;;;;5.33;4.83;;;;;;;21.44;55.76;98781.44;4971822;28;20226;-63
2021/11/06 07:40:07;;;;;;;5.63;4.73;;;;;;;21.45;55.76;98782.34;4999338;28;20256;-62
2021/11/06 07:42:36;;;;;;;5.07;4.60;;;;;;;21.37;56.38;98774.28;5000996;28;20242;-63
2021/11/06 07:45:03;;;;;;;5.10;4.63;;;;;;;21.27;56.07;98745.63;4983289;28;20317;-62
2021/11/06 07:47:30;;;;;;;5.60;5.10;;;;;;;21.42;56.00;98771.97;4975142;28;20285;-63
2021/11/06 07:49:57;;;;;;;4.80;4.30;;;;;;;21.46;56.45;98787.53;4986841;28;20261;-64
2021/11/06 07:52:23;;;;;;;5.20;4.70;;;;;;;21.46;55.97;98782.41;5005929;28;20222;-63
2021/11/06 07:54:50;;;;;;;4.83;4.43;;;;;;;21.47;56.22;98790.97;4997174;28;20229;-62
2021/11/06 07:57:17;;;;;;;5.30;4.80;;;;;;;21.47;56.04;98786.72;4977278;28;20281;-62
2021/11/06 07:59:43;;;;;;;5.20;4.70;;;;;;;21.47;56.00;98778.19;4983530;28;20289;-62
2021/11/06 08:02:10;;;;;;;4.70;4.30;;;;;;;21.43;56.26;98782.25;5002951;28;20230;-62
2021/11/06 08:04:37;;;;;;;5.20;4.70;;;;;;;21.47;55.74;98796.09;4980994;28;20230;-64
2021/11/06 08:07:03;;;;;;;5.03;4.63;;;;;;;21.49;55.80;98802.13;4974222;28;20675;-62
2021/11/06 08:09:30;;;;;;;4.93;4.53;;;;;;;20.92;55.95;98702.94;5003709;28;20238;-61
2021/11/06 08:11:57;;;;;;;4.50;4.10;;;;;;;21.49;55.78;98797.91;4997835;28;20218;-64
2021/11/06 08:14:24;;;;;;;5.30;4.80;;;;;;;21.50;56.01;98799.66;4984851;28;20313;-62
2021/11/06 08:16:59;;;;;;;4.80;4.40;;;;;;;21.49;55.86;98802.13;5002652;28;20209;-62
2021/11/06 08:19:26;;;;;;;5.00;4.60;;;;;;;21.50;56.11;98801.38;5003023;28;20727;-63
2021/11/06 08:21:55;;;;;;;4.90;4.43;;;;;;;21.50;55.78;98807.34;4988056;28;20213;-64
2021/11/06 08:24:22;;;;;;;5.20;4.70;;;;;;;21.50;55.75;98799.66;5003990;28;20286;-63
2021/11/06 08:26:50;;;;;;;6.07;4.03;;;;;;;21.34;56.15;98775.81;4984428;28;20715;-62
2021/11/06 08:29:17;;;;;;;6.93;4.90;;;;;;;21.50;56.18;98799.66;4970579;28;20611;-63
2021/11/06 08:31:44;;;;;;;4.47;4.07;;;;;;;21.51;55.88;98804.00;4998148;28;20580;-62
2021/11/06 08:34:10;;;;;;;5.17;4.40;;;;;;;21.32;56.16;98768.06;4996808;28;20225;-63
2021/11/06 08:36:37;;;;;;;4.57;4.17;;;;;;;21.47;56.19;98798.66;4977385;28;20694;-64
2021/11/06 08:39:04;;;;;;;5.03;4.63;;;;;;;21.52;56.11;98807.41;4976272;28;20232;-62
2021/11/06 08:41:31;;;;;;;4.67;4.27;;;;;;;21.51;55.83;98801.44;4993517;28;20208;-63
2021/11/06 08:43:58;;;;;;;4.63;4.23;;;;;;;21.51;55.93;98804.00;4994125;28;20314;-62
2021/11/06 08:46:25;;;;;;;5.00;4.53;;;;;;;21.52;55.94;98799.72;4979934;28;20209;-63
2021/11/06 08:48:52;;;;;;;4.60;4.20;;;;;;;21.53;55.97;98799.81;5003850;28;20676;-61
2021/11/06 08:51:18;;;;;;;15.47;9.10;;;;;;;21.51;53.50;98798.88;5002898;28;20229;-63
2021/11/06 08:53:47;;;;;;;15.70;11.17;;;;;;;21.48;49.33;98798.72;5008185;28;20297;-62
2021/11/06 08:56:14;;;;;;;14.77;12.67;;;;;;;21.45;48.21;98788.34;5007163;28;20229;-64
2021/11/06 08:58:40;;;;;;;13.93;12.27;;;;;;;21.44;48.34;98795.94;4987955;28;20233;-63
2021/11/06 09:01:07;;;;;;;13.20;11.80;;;;;;;21.42;48.20;98788.19;4996827;28;20235;-62
2021/11/06 09:03:34;;;;;;;17.10;12.60;;;;;;;21.38;48.18;98785.41;5001078;28;20208;-62
2021/11/06 09:06:00;;;;;;;16.33;11.63;;;;;;;21.37;48.51;98791.31;5003368;28;20225;-63
2021/11/06 09:08:31;;;;;;;14.53;12.77;;;;;;;21.36;48.25;98795.56;4998093;28;20689;-63
2021/11/06 09:11:02;;;;;;;14.20;12.70;;;;;;;21.35;48.10;98791.22;4976963;28;20231;-62
2021/11/06 09:13:29;;;;;;;15.43;13.80;;;;;;;21.26;46.98;98780.53;4979620;28;20222;-63
2021/11/06 09:16:07;;;;;;;16.23;14.50;;;;;;;21.31;45.84;98786.78;5003880;28;20198;-62
2021/11/06 09:18:34;;;;;;;16.17;14.53;;;;;;;21.23;45.42;98782.94;4981153;28;20207;-62
2021/11/06 09:21:06;;;;;;;16.40;14.63;;;;;;;21.25;46.22;98785.56;4974910;28;20202;-64
2021/11/06 09:23:32;;;;;;;15.90;13.60;;;;;;;21.19;47.04;98783.59;5004170;28;20301;-62
2021/11/06 09:25:59;;;;;;;14.77;13.27;;;;;;;21.23;47.52;98794.88;4988757;28;20332;-62
2021/11/06 09:28:26;;;;;;;16.50;13.63;;;;;;;21.17;48.39;98782.63;5006695;28;20808;-63
2021/11/06 09:30:53;;;;;;;14.93;12.87;;;;;;;21.20;48.54;98787.91;4975655;28;20637;-62
2021/11/06 09:33:20;;;;;;;16.30;12.83;;;;;;;21.21;49.05;98799.91;4985261;28;20252;-62
2021/11/06 09:35:47;;;;;;;13.60;12.20;;;;;;;21.20;49.34;98799.84;4999078;28;20250;-63
2021/11/06 09:38:14;;;;;;;14.07;12.57;;;;;;;21.21;49.90;98801.56;4999919;28;20241;-65
2021/11/06 09:40:40;;;;;;;13.17;11.87;;;;;;;21.20;50.18;98800.69;4996559;28;20297;-62
2021/11/06 09:43:07;;;;;;;13.70;12.30;;;;;;;21.18;50.78;98794.63;4994344;28;20771;-63
2021/11/06 09:45:34;;;;;;;13.03;11.63;;;;;;;21.18;51.10;98804.88;4983386;28;20670;-63
2021/11/06 09:48:00;;;;;;;12.03;10.83;;;;;;;21.16;51.16;98803.91;5005812;28;20326;-63
2021/11/06 09:50:27;;;;;;;12.30;11.07;;;;;;;21.08;51.82;98778.75;4983127;28;20291;-64
2021/11/06 09:52:56;;;;;;;13.03;11.63;;;;;;;21.22;51.75;98806.75;4982812;28;20333;-64
2021/11/06 09:55:23;;;;;;;11.97;10.67;;;;;;;21.21;51.41;98801.56;4988566;28;20269;-62
2021/11/06 09:57:50;;;;;;;14.87;10.53;;;;;;;21.23;51.26;98812.78;4989661;28;20296;-63
2021/11/06 10:00:18;;;;;;;11.97;10.53;;;;;;;21.22;51.39;98811.88;5005951;28;20675;-63
2021/11/06 10:02:45;;;;;;;11.97;10.07;;;;;;;21.04;51.74;98780.28;4983364;28;20258;-64
2021/11/06 10:05:12;;;;;;;11.90;10.70;;;;;;;21.20;52.10;98797.28;4985542;28;20249;-64
2021/11/06 10:07:39;;;;;;;11.27;10.17;;;;;;;21.25;52.40;98808.59;4973392;28;20231;-65
2021/11/06 10:10:11;;;;;;;11.00;9.90;;;;;;;21.26;52.27;98800.13;4999250;28;20372;-63
2021/11/06 10:12:58;;;;;;;11.13;10.00;;;;;;;21.26;52.60;98812.94;5001314;28;21348;-62
2021/11/06 10:15:25;;;;;;;11.73;9.87;;;;;;;21.22;52.63;98801.66;4995801;28;20231;-64
2021/11/06 10:17:52;;;;;;;10.60;9.50;;;;;;;21.26;52.81;98806.09;4966549;28;20235;-62
2021/11/06 10:20:24;;;;;;;11.83;9.40;;;;;;;21.13;52.88;98778.19;4974021;28;20198;-63
2021/11/06 10:22:52;;;;;;;10.93;9.80;;;;;;;21.26;53.01;98806.09;4964191;28;20256;-62
2021/11/06 10:25:21;;;;;;;9.80;8.80;;;;;;;21.27;53.24;98801.88;4962007;28;20226;-63
2021/11/06 10:27:59;;;;;;;10.00;8.97;;;;;;;21.26;53.01;98798.44;4998369;28;20233;-62
2021/11/06 10:30:27;;;;;;;9.13;8.13;;;;;;;21.26;52.77;98801.00;4983097;28;20631;-63
2021/11/06 10:33:13;;;;;;;9.23;8.30;;;;;;;21.26;53.02;98795.03;5001192;28;20317;-62
2021/11/06 10:35:47;;;;;;;9.57;8.57;;;;;;;21.13;53.18;98770.50;4982452;28;20250;-65
2021/11/06 10:38:15;;;;;;;9.87;8.53;;;;;;;21.10;53.17;98765.25;5001956;28;20668;-66
2021/11/06 10:40:44;;;;;;;9.43;8.43;;;;;;;21.26;53.43;98785.66;4978371;28;20676;-65
2021/11/06 10:43:13;;;;;;;9.47;8.03;;;;;;;21.28;53.23;98788.28;4995777;28;20232;-62
2021/11/06 10:45:59;;;;;;;12.40;8.27;;;;;;;21.24;53.13;98782.16;4986342;28;20308;-63
2021/11/06 10:48:30;;;;;;;7.70;7.00;;;;;;;21.28;53.53;98785.72;4971933;28;20202;-63
2021/11/06 10:51:03;;;;;;;14.93;13.33;;;;;;;21.24;52.71;98777.06;5005378;28;20237;-63
2021/11/06 10:53:30;;;;;;;14.57;12.97;;;;;;;21.26;52.12;98772.88;4968531;28;20601;-66
2021/11/06 10:55:57;;;;;;;14.73;11.73;;;;;;;21.27;52.44;98778.88;5000027;28;20294;-64
2021/11/06 10:58:25;;;;;;;12.90;11.50;;;;;;;21.23;52.66;98767.59;5000472;28;20327;-65
2021/11/06 11:00:54;;;;;;;11.80;10.60;;;;;;;21.24;52.96;98766.81;4972959;28;20246;-63
2021/11/06 11:03:24;;;;;;;11.97;10.67;;;;;;;21.22;52.90;98758.19;4985509;28;20206;-63
2021/11/06 11:05:51;;;;;;;11.20;9.90;;;;;;;21.27;53.23;98768.66;4978097;28;20710;-64
2021/11/06 11:08:17;;;;;;;11.13;9.20;;;;;;;21.18;53.49;98757.97;4988425;28;20293;-63
2021/11/06 11:10:45;;;;;;;11.57;10.10;;;;;;;21.27;53.32;98764.41;4993879;28;20726;-63
2021/11/06 11:13:16;;;;;;;9.93;8.80;;;;;;;21.27;53.71;98758.41;4991303;28;20222;-64
2021/11/06 11:15:45;;;;;;;10.53;9.50;;;;;;;21.28;53.62;98744.81;5006632;28;20771;-63
2021/11/06 11:18:31;;;;;;;10.70;9.40;;;;;;;21.29;53.69;98744.03;5007330;28;20225;-63
2021/11/06 11:21:31;;;;;;;9.80;8.80;;;;;;;21.28;53.66;98745.69;4986191;28;20695;-63
2021/11/06 11:24:02;;;;;;;10.10;9.00;;;;;;;20.82;53.75;98662.41;4974821;28;20771;-63
2021/11/06 11:26:40;;;;;;;12.07;8.37;;;;;;;21.25;54.21;98735.31;5005158;28;20293;-63
2021/11/06 11:29:08;;;;;;;10.60;8.17;;;;;;;21.29;54.07;98739.78;4985651;28;20293;-64
2021/11/06 11:31:39;;;;;;;11.33;7.63;;;;;;;21.26;54.01;98724.28;5003960;28;20535;-64